Latest Weather Observations for Horsham AWS

IDV60801

Issued at 3:05 pm EDT Saturday 1 November 2014 (issued every 30 minutes, with the page automatically refreshed every 10 minutes)

About weather observations | Map of weather stations | Latest weather observations for VIC | Other Formats
Station Details ID: 079100 Name: HORSHAM AERODROME Lat: -36.67 Lon: 142.17 Height: 133.8 m
Data from the previous 72 hours. | See also: Recent months at Horsham AWS
Date/Time
EDT
Temp
°C
App
Temp
°C
Dew
Point
Rel
Hum
%
Delta-T
°C
Wind Press
QNH
hPa
Press
MSL
hPa
Rain
since 9 am
mm
Dir
 
Spd
km/h
Gust
km/h
Spd
kts
Gust
kts
01/03:00pm 15.7 4.9 1.8 39 6.2 WSW 48 63 26 34 1012.3 1012.1 0.2
01/02:30pm 14.1 1.9 2.7 46 5.1 WSW 56 80 30 43 1012.3 1012.1 0.2
01/02:00pm 16.0 5.3 2.8 41 6.0 SW 48 67 26 36 1011.5 1011.3 0.2
01/01:30pm 14.9 4.3 0.7 38 6.1 WSW 46 69 25 37 1011.5 1011.3 0.2
01/01:02pm 15.0 5.1 2.9 44 5.5 WSW 44 72 24 39 1011.0 1010.8 0.0
01/01:00pm 15.9 5.9 2.0 39 6.2 WSW 44 61 24 33 1010.8 1010.6 0.0
01/12:46pm 16.4 6.6 2.1 38 6.4 WSW 43 61 23 33 1010.7 1010.5 0.0
01/12:30pm 13.7 4.1 4.3 53 4.3 WSW 44 61 24 33 1010.8 1010.6 0.0
01/12:00pm 13.9 4.9 4.5 53 4.4 WSW 41 59 22 32 1010.8 1010.6 0.0
01/11:32am 12.5 4.5 7.4 71 2.5 WSW 39 57 21 31 1010.5 1010.2 0.0
01/11:30am 12.1 3.2 7.0 71 2.5 WSW 43 57 23 31 1010.5 1010.2 0.0
01/11:18am 14.1 5.8 4.1 51 4.6 WSW 37 59 20 32 1010.2 1009.9 0.0
01/11:00am 14.0 4.8 5.6 57 4.0 SW 43 57 23 31 1010.0 1009.7 0.0
01/10:35am 14.2 5.4 5.6 56 4.1 WSW 41 59 22 32 1009.5 1009.5 0.0
01/10:30am 13.7 4.3 4.6 54 4.2 SW 43 59 23 32 1009.4 1009.3 0.0
01/10:00am 13.5 6.1 6.6 63 3.3 W 35 48 19 26 1009.0 1008.9 0.0
01/09:48am 13.0 5.6 8.5 74 2.3 W 37 56 20 30 1008.8 1008.7 0.0
01/09:30am 13.4 5.1 6.3 62 3.4 WSW 39 48 21 26 1008.4 1008.3 0.0
01/09:00am 13.0 6.0 6.8 66 3.0 W 33 46 18 25 1008.0 1007.9 3.6
01/08:30am 12.4 7.0 8.1 75 2.1 WSW 26 37 14 20 1007.6 1007.5 3.6
01/08:00am 11.7 6.1 8.6 81 1.6 WSW 28 39 15 21 1006.9 1006.8 3.6
01/07:30am 11.2 5.3 9.1 87 1.1 WSW 30 39 16 21 1006.4 1006.3 3.6
01/07:00am 11.3 5.0 9.6 89 0.9 WSW 33 46 18 25 1005.8 1005.7 3.6
01/06:42am 11.7 6.5 10.4 92 0.7 WSW 28 35 15 19 1005.3 1005.3 3.6
01/06:30am 11.7 5.9 10.8 94 0.5 WSW 32 48 17 26 1005.0 1005.0 3.6
01/06:22am 11.9 6.9 11.1 95 0.4 WSW 28 48 15 26 1004.8 1004.8 3.6
01/06:00am 12.4 9.1 11.6 95 0.4 W 20 28 11 15 1004.2 1004.2 3.2
01/05:30am 12.8 9.4 11.2 90 0.8 W 20 26 11 14 1003.5 1003.5 1.8
01/05:19am 13.0 10.2 11.2 89 1.0 W 17 24 9 13 1003.5 1003.5 1.8
01/05:00am 13.0 9.6 11.1 88 1.0 W 20 28 11 15 1003.3 1003.3 1.8
01/04:30am 13.1 9.3 11.2 88 1.0 W 22 30 12 16 1003.2 1003.2 1.8
01/04:00am 13.1 9.9 11.3 89 1.0 W 19 24 10 13 1003.2 1003.2 1.8
01/03:30am 13.1 8.6 11.3 89 1.0 W 26 33 14 18 1002.7 1002.6 1.8
01/03:00am 13.2 9.9 11.6 90 0.9 WSW 20 28 11 15 1001.9 1001.8 1.8
01/02:30am 13.9 11.7 12.1 89 1.0 WSW 15 20 8 11 1001.5 1001.4 1.8
01/02:00am 14.7 13.1 11.5 81 1.7 SW 11 13 6 7 1001.5 1001.4 0.2
01/01:30am 15.5 11.1 10.3 71 2.8 WSW 24 30 13 16 1001.8 1001.7 0.0
01/01:00am 16.3 11.0 9.7 65 3.5 WSW 28 39 15 21 1002.1 1002.0 0.0
01/12:38am 16.6 10.4 10.2 66 3.4 WSW 33 52 18 28 1002.4 1002.3 0.0
01/12:30am 16.8 10.3 10.2 65 3.5 WSW 35 52 19 28 1002.6 1002.5 0.0
01/12:00am 17.2 9.7 11.0 67 3.4 WSW 41 54 22 29 1002.3 1002.2 0.0
 
Date/Time
EDT
Temp
°C
App
Temp
°C
Dew
Point
Rel
Hum
%
Delta-T
°C
Wind Press
QNH
hPa
Press
MSL
hPa
Rain
since 9 am
mm
Dir
 
Spd
km/h
Gust
km/h
Spd
kts
Gust
kts
31/11:30pm 18.4 12.6 10.7 61 4.2 WSW 32 50 17 27 1002.2 1002.1 0.0
31/11:29pm 18.4 12.6 10.7 61 4.2 WSW 32 50 17 27 1002.1 1002.0 0.0
31/11:00pm 20.2 12.4 9.7 51 5.7 SW 41 54 22 29 1000.8 1000.7 0.0
31/10:32pm 23.5 17.5 7.2 35 8.5 WSW 28 48 15 26 1000.6 1000.5 0.0
31/10:30pm 23.5 17.4 6.7 34 8.7 WSW 28 37 15 20 1000.6 1000.5 0.0
31/10:00pm 24.4 18.1 5.7 30 9.6 SW 28 39 15 21 999.4 999.3 0.0
31/09:30pm 25.1 19.3 4.3 26 10.4 WSW 24 32 13 17 999.2 999.1 0.0
31/09:09pm 25.9 18.4 4.4 25 10.9 WSW 33 52 18 28 999.2 999.1 0.0
31/09:00pm 26.7 18.9 5.1 25 11.2 W 35 52 19 28 999.3 999.2 0.0
31/08:58pm 27.5 19.9 3.9 22 11.9 W 33 48 18 26 999.2 999.1 0.0
31/08:30pm 29.7 23.6 2.9 18 13.5 W 24 30 13 16 997.8 997.8 0.0
31/08:00pm 30.3 24.5 2.5 17 14.1 NNW 22 30 12 16 997.4 997.4 0.0
31/07:30pm 31.2 24.5 1.5 15 14.8 NW 26 37 14 20 997.4 997.4 0.0
31/07:00pm 32.3 24.1 0.4 13 15.8 NNW 33 44 18 24 997.3 997.3 0.0
31/06:30pm 32.5 24.4 -0.5 12 16.0 NNW 32 43 17 23 997.5 997.5 0.0
31/06:01pm 32.7 23.5 -1.6 11 16.3 N 37 56 20 30 998.0 997.9 0.0
31/06:00pm 32.8 23.2 -1.5 11 16.5 N 39 56 21 30 997.8 997.8 0.0
31/05:52pm 34.1 25.2 -1.8 10 17.2 NNW 35 56 19 30 997.7 997.7 0.0
31/05:30pm 34.4 26.1 -1.6 10 17.4 NW 32 46 17 25 998.5 998.4 0.0
31/05:04pm 34.1 24.8 -1.8 10 17.2 NNW 37 56 20 30 998.9 998.8 0.0
31/05:00pm 32.7 22.3 -1.6 11 16.4 NNW 43 57 23 31 999.0 998.9 0.0
31/04:40pm 33.9 25.0 -2.0 10 17.1 NW 35 54 19 29 999.2 999.1 0.0
31/04:30pm 34.1 25.0 -0.5 11 16.9 NNW 37 46 20 25 999.5 999.4 0.0
31/04:17pm 35.1 25.6 -1.1 10 17.7 N 39 57 21 31 999.8 999.7 0.0
31/04:11pm 32.9 22.7 -0.2 12 16.2 N 43 54 23 29 999.7 999.6 0.0
31/04:00pm 34.1 26.0 0.7 12 16.8 NNW 33 46 18 25 1000.1 1000.0 0.0
31/03:48pm 32.7 24.0 -0.4 12 16.1 NW 35 54 19 29 1000.4 1000.3 0.0
31/03:30pm 32.9 23.5 -0.2 12 16.2 NW 39 50 21 27 1000.6 1000.5 0.0
31/03:00pm 32.7 24.6 -0.4 12 16.2 NNW 32 48 17 26 1001.4 1001.3 0.0
31/02:30pm 33.3 25.1 0.1 12 16.3 NNW 33 54 18 29 1002.1 1002.0 0.0
31/02:04pm 33.0 24.3 -0.2 12 16.2 N 35 54 19 29 1002.6 1002.5 0.0
31/02:00pm 32.6 23.9 -0.5 12 16.1 N 35 50 19 27 1002.7 1002.6 0.0
31/01:35pm 32.7 24.0 -0.4 12 16.1 N 35 56 19 30 1003.1 1003.0 0.0
31/01:30pm 32.2 23.5 -0.8 12 15.9 N 35 44 19 24 1003.2 1003.2 0.0
31/01:00pm 31.8 23.2 0.0 13 15.5 N 35 54 19 29 1004.2 1004.2 0.0
31/12:51pm 30.5 21.9 0.0 14 14.7 N 35 54 19 29 1004.3 1004.3 0.0
31/12:30pm 29.5 21.3 0.2 15 14.1 N 33 48 18 26 1005.0 1005.0 0.0
31/12:00pm 28.6 20.7 1.2 17 13.4 N 32 44 17 24 1005.8 1005.7 0.0
31/11:30am 27.9 20.1 1.4 18 12.9 NNE 32 41 17 22 1006.7 1006.6 0.0
31/11:00am 26.8 19.9 4.6 24 11.3 NNE 30 44 16 24 1007.4 1007.3 0.0
31/10:30am 24.7 17.5 5.0 28 10.0 NE 32 43 17 23 1007.9 1007.8 0.0
31/10:00am 23.2 17.5 6.5 34 8.6 NNE 26 33 14 18 1008.4 1008.3 0.0
31/09:30am 21.4 15.8 7.3 40 7.3 NE 26 32 14 17 1008.4 1008.3 0.0
31/09:00am 17.7 12.9 7.4 51 5.2 NE 22 28 12 15 1009.1 1009.0 0.0
31/08:30am 16.7 12.5 8.1 57 4.4 NE 20 26 11 14 1009.3 1009.2 0.0
31/08:00am 13.1 9.2 8.6 74 2.3 ENE 19 22 10 12 1009.4 1009.3 0.0
31/07:30am 11.6 8.0 8.3 80 1.6 ENE 17 20 9 11 1009.4 1009.3 0.0
31/07:00am 10.7 8.2 8.1 84 1.3 ENE 11 13 6 7 1009.5 1009.5 0.0
31/06:30am 10.4 7.9 8.0 85 1.2 E 11 15 6 8 1009.4 1009.3 0.0
31/06:00am 10.1 6.8 8.2 88 0.9 E 15 19 8 10 1009.2 1009.1 0.0
31/05:30am 9.1 5.6 7.4 89 0.8 ESE 15 17 8 9 1009.3 1009.2 0.0
31/05:00am 9.1 6.0 7.2 88 0.9 E 13 15 7 8 1009.6 1009.6 0.0
31/04:30am 9.6 6.6 7.7 88 0.9 ESE 13 15 7 8 1010.0 1010.0 0.0
31/04:00am 9.3 5.9 7.6 89 0.8 ESE 15 17 8 9 1010.0 1010.0 0.0
31/03:30am 9.0 5.9 7.1 88 0.9 ESE 13 17 7 9 1010.6 1010.6 0.0
31/03:00am 9.4 6.3 7.2 86 1.0 E 13 15 7 8 1010.9 1010.9 0.0
31/02:30am 9.0 5.4 6.6 85 1.1 ESE 15 17 8 9 1011.0 1011.0 0.0
31/02:00am 9.0 5.2 5.6 79 1.6 ESE 15 19 8 10 1011.5 1011.5 0.0
31/01:30am 10.6 7.1 5.6 71 2.3 SE 13 19 7 10 1011.9 1011.9 0.0
31/01:00am 11.9 8.9 6.2 68 2.7 SSE 11 15 6 8 1012.4 1012.4 0.0
31/12:30am 12.6 9.8 5.3 61 3.4 S 9 15 5 8 1012.5 1012.5 0.0
31/12:00am 14.5 11.8 5.8 56 4.2 SW 9 11 5 6 1012.7 1012.7 0.0
 
Date/Time
EDT
Temp
°C
App
Temp
°C
Dew
Point
Rel
Hum
%
Delta-T
°C
Wind Press
QNH
hPa
Press
MSL
hPa
Rain
since 9 am
mm
Dir
 
Spd
km/h
Gust
km/h
Spd
kts
Gust
kts
30/11:30pm 14.5 11.7 5.3 54 4.4 SW 9 9 5 5 1012.7 1012.7 0.0
30/11:00pm 15.4 12.3 5.6 52 4.7 SSW 11 13 6 7 1013.0 1013.0 0.0
30/10:30pm 15.5 12.4 5.4 51 4.8 SSW 11 13 6 7 1013.1 1013.1 0.0
30/10:00pm 15.4 12.2 5.0 50 4.9 SSW 11 13 6 7 1013.1 1013.1 0.0
30/09:30pm 15.0 11.3 4.7 50 4.8 SSW 13 15 7 8 1012.8 1012.8 0.0
30/09:00pm 15.6 11.9 4.6 48 5.2 SSW 13 15 7 8 1012.4 1012.4 0.0
30/08:30pm 17.5 13.9 4.8 43 6.1 SSW 13 15 7 8 1012.2 1012.2 0.0
30/08:00pm 20.8 17.5 4.8 35 7.9 SW 11 13 6 7 1012.2 1012.2 0.0
30/07:30pm 23.0 19.8 5.0 31 9.0 SW 11 15 6 8 1011.8 1011.8 0.0
30/07:00pm 23.9 20.0 5.3 30 9.4 SW 15 22 8 12 1012.0 1012.0 0.0
30/06:30pm 24.3 20.7 5.1 29 9.7 S 13 19 7 10 1012.0 1012.0 0.0
30/06:00pm 24.5 20.6 5.3 29 9.8 W 15 20 8 11 1011.8 1011.8 0.0
30/05:30pm 24.5 20.1 4.8 28 9.9 W 17 22 9 12 1012.0 1012.0 0.0
30/05:00pm 24.8 19.8 4.5 27 10.2 W 20 33 11 18 1012.3 1012.3 0.0
30/04:30pm 25.1 19.7 4.3 26 10.4 SW 22 33 12 18 1012.5 1012.5 0.0
30/04:00pm 24.0 19.2 4.4 28 9.8 WNW 19 26 10 14 1012.5 1012.5 0.0
30/03:30pm 24.8 20.1 5.1 28 10.0 W 19 30 10 16 1013.0 1013.0 0.0
30/03:00pm 23.5 18.7 4.9 30 9.3 WSW 19 28 10 15 1013.2 1013.2 0.0
30/02:30pm 23.3 18.2 6.1 33 8.8 WNW 22 28 12 15 1013.7 1013.6 0.0
30/02:00pm 21.8 18.4 5.7 35 8.1 W 13 22 7 12 1014.0 1013.9 0.0
30/01:30pm 20.8 16.2 5.6 37 7.6 SW 19 26 10 14 1014.6 1014.5 0.0
30/01:00pm 20.1 17.1 6.1 40 7.0 WSW 11 20 6 11 1015.0 1014.9 0.0
30/12:30pm 19.0 15.7 6.5 44 6.3 SW 13 24 7 13 1015.3 1015.2 0.0
30/12:00pm 18.9 15.4 7.4 47 5.9 SW 15 22 8 12 1016.0 1016.0 0.0
30/11:30am 17.7 14.1 6.6 48 5.5 SSW 15 24 8 13 1016.2 1016.2 0.0
30/11:00am 17.5 14.1 7.5 52 5.1 SSW 15 20 8 11 1016.3 1016.3 0.0
30/10:30am 15.5 12.3 7.0 57 4.2 SSW 13 20 7 11 1016.4 1016.4 0.0
30/10:00am 14.7 12.0 7.5 62 3.6 WSW 11 33 6 18 1016.4 1016.4 0.0
30/09:30am 13.9 11.2 7.4 65 3.2 WSW 11 17 6 9 1016.5 1016.5 0.0
30/09:00am 13.3 10.5 8.4 72 2.5 SW 13 19 7 10 1016.6 1016.6 0.0
30/08:30am 12.2 9.7 9.6 84 1.3 SW 13 17 7 9 1017.0 1017.0 0.0
30/08:00am 9.6 7.7 9.0 96 0.3 SW 9 13 5 7 1016.7 1016.7 0.0
30/07:47am 8.6 6.5 8.2 97 0.2 WSW 9 11 5 6 1016.5 1016.5 0.0
30/07:30am 7.3 4.9 6.9 97 0.2 WSW 9 13 5 7 1016.3 1016.3 0.0
30/07:00am 6.5 3.1 6.1 97 0.2 WSW 13 15 7 8 1015.9 1015.9 0.0
30/06:42am 6.9 4.0 6.3 96 0.3 WSW 11 13 6 7 1015.4 1015.3 0.0
30/06:30am 6.9 4.3 6.3 96 0.3 WSW 9 13 5 7 1015.2 1015.1 0.0
30/06:00am 6.4 3.7 5.7 95 0.3 W 9 11 5 6 1015.2 1015.1 0.0
30/05:30am 6.7 3.7 6.0 95 0.3 W 11 13 6 7 1015.5 1015.4 0.0
30/05:00am 7.2 4.3 6.3 94 0.4 WSW 11 15 6 8 1015.7 1015.6 0.0
30/04:30am 8.0 4.4 6.9 93 0.5 WSW 15 19 8 10 1015.7 1015.6 0.0
30/04:00am 8.9 6.6 7.5 91 0.7 WSW 9 13 5 7 1015.0 1014.9 0.0
30/03:30am 9.3 6.7 7.9 91 0.7 WSW 11 13 6 7 1015.0 1014.9 0.0
30/03:00am 9.4 6.4 7.7 89 0.8 SW 13 13 7 7 1015.2 1015.1 0.0
30/02:30am 9.6 7.3 7.5 87 1.0 WSW 9 13 5 7 1015.4 1015.3 0.0
30/02:00am 10.5 7.6 8.1 85 1.2 SW 13 15 7 8 1015.5 1015.4 0.0
30/01:30am 10.6 8.0 7.7 82 1.4 SW 11 13 6 7 1015.8 1015.8 0.0
30/01:00am 11.7 9.3 8.6 81 1.5 SW 11 13 6 7 1016.1 1016.1 0.0
30/12:30am 11.6 8.7 8.3 80 1.6 SW 13 17 7 9 1016.2 1016.2 0.0
30/12:00am 11.8 8.8 7.7 76 2.0 SW 13 17 7 9 1016.2 1016.2 0.0
 
Date/Time
EDT
Temp
°C
App
Temp
°C
Dew
Point
Rel
Hum
%
Delta-T
°C
Wind Press
QNH
hPa
Press
MSL
hPa
Rain
since 9 am
mm
Dir
 
Spd
km/h
Gust
km/h
Spd
kts
Gust
kts
29/11:30pm 12.4 9.3 7.3 71 2.5 SW 13 17 7 9 1016.2 1016.2 0.0
29/11:00pm 13.0 10.0 7.5 69 2.7 SW 13 13 7 7 1016.4 1016.4 0.0
29/10:30pm 13.6 11.0 7.6 67 3.0 SW 11 13 6 7 1016.3 1016.3 0.0
29/10:00pm 14.7 11.8 8.0 64 3.4 SW 13 17 7 9 1016.4 1016.4 0.0
29/09:30pm 15.5 12.1 7.8 60 3.9 SSW 15 17 8 9 1016.3 1016.3 0.0
29/09:00pm 17.0 12.7 7.9 55 4.6 WSW 20 24 11 13 1016.2 1016.2 0.0
29/08:30pm 18.2 12.8 7.9 51 5.3 WSW 26 33 14 18 1016.1 1016.1 0.0
29/08:00pm 19.5 15.2 7.9 47 6.0 WSW 20 26 11 14 1015.7 1015.6 0.0
29/07:30pm 21.4 16.9 6.9 39 7.5 WSW 20 30 11 16 1015.2 1015.1 0.0
29/07:00pm 22.7 17.7 6.5 35 8.3 WSW 22 33 12 18 1015.1 1015.0 0.0
29/06:30pm 23.1 17.7 6.4 34 8.6 WSW 24 33 13 18 1014.8 1014.7 0.0
29/06:00pm 23.8 18.5 6.6 33 8.9 W 24 33 13 18 1014.8 1014.7 0.0
29/05:30pm 24.3 18.6 6.6 32 9.2 W 26 35 14 19 1014.7 1014.6 0.0
29/05:00pm 24.1 19.1 6.4 32 9.2 W 22 33 12 18 1014.7 1014.6 0.0
29/04:30pm 24.3 19.0 6.6 32 9.2 WNW 24 35 13 19 1014.8 1014.7 0.0
29/04:00pm 24.6 20.0 6.4 31 9.4 WNW 20 33 11 18 1015.0 1014.9 0.0
29/03:30pm 23.5 18.1 6.3 33 8.9 W 24 33 13 18 1015.4 1015.3 0.0

Other Formats:

Comma delimited format used in spreadsheet applications
http://www.bom.gov.au/fwo/IDV60801/IDV60801.95839.axf

JavaScript Object Notation format (JSON) in row-major order
http://www.bom.gov.au/fwo/IDV60801/IDV60801.95839.json